Time;durP1;ratioP1;P1;durP2;ratioP2;P2;SDS_P1;SDS_P2;PMS_P1;PMS_P2;Temp;Humidity;BMP_temperature;BMP_pressure;BME280_temperature;BME280_humidity;BME280_pressure;Samples;Min_cycle;Max_cycle;Signal;HPM_P1;HPM_P2
2022/06/25 00:00:01;;;;;;;10.20;9.40;;;;;;;;;;4939493;29;20286;-73
2022/06/25 00:02:29;;;;;;;9.80;9.05;;;;;;;;;;4939972;29;20735;-73
2022/06/25 00:07:50;;;;;;;9.63;8.82;;;;;;;;;;4919708;29;20297;-73
2022/06/25 00:10:19;;;;;;;10.15;9.35;;;;;;;;;;4939548;29;20223;-73
2022/06/25 00:12:46;;;;;;;10.05;9.23;;;;;;;;;;4939817;29;20254;-73
2022/06/25 00:15:15;;;;;;;11.02;10.02;;;;;;;;;;4939333;29;20234;-73
2022/06/25 00:17:43;;;;;;;10.00;9.30;;;;;;;;;;4939919;29;20286;-73
2022/06/25 00:20:12;;;;;;;10.35;9.43;;;;;;;;;;4940315;29;20682;-73
2022/06/25 00:22:41;;;;;;;10.20;9.38;;;;;;;;;;4939948;29;20257;-73
2022/06/25 00:25:12;;;;;;;9.63;8.82;;;;;;;;;;4939597;29;20691;-73
2022/06/25 00:27:41;;;;;;;9.95;9.20;;;;;;;;;;4939691;29;20223;-73
2022/06/25 00:30:10;;;;;;;10.07;9.27;;;;;;;;;;4939769;29;20270;-73
2022/06/25 00:32:38;;;;;;;9.30;8.60;;;;;;;;;;4939688;29;20215;-73
2022/06/25 00:35:07;;;;;;;10.02;9.23;;;;;;;;;;4938654;29;20240;-73
2022/06/25 00:37:35;;;;;;;9.85;9.05;;;;;;;;;;4938732;29;20554;-73
2022/06/25 00:40:05;;;;;;;10.18;9.38;;;;;;;;;;4938272;29;20275;-73
2022/06/25 00:42:35;;;;;;;10.23;9.32;;;;;;;;;;4939444;29;20207;-73
2022/06/25 00:45:04;;;;;;;12.02;10.98;;;;;;;;;;4939116;29;20220;-73
2022/06/25 00:47:32;;;;;;;12.25;11.27;;;;;;;;;;4939388;29;20682;-73
2022/06/25 00:50:01;;;;;;;12.40;11.40;;;;;;;;;;4939212;29;20608;-73
2022/06/25 00:52:33;;;;;;;12.57;11.57;;;;;;;;;;4939220;29;20218;-73
2022/06/25 00:55:06;;;;;;;13.50;12.43;;;;;;;;;;4938664;29;20235;-73
2022/06/25 00:57:36;;;;;;;13.85;12.63;;;;;;;;;;4939252;29;20195;-73
2022/06/25 01:00:06;;;;;;;14.25;13.10;;;;;;;;;;4938829;29;20196;-73
2022/06/25 01:02:34;;;;;;;14.30;13.20;;;;;;;;;;4938988;29;20211;-73
2022/06/25 01:05:06;;;;;;;13.15;12.02;;;;;;;;;;4938375;29;20220;-73
2022/06/25 01:07:34;;;;;;;13.48;12.45;;;;;;;;;;4938660;29;20215;-73
2022/06/25 01:10:06;;;;;;;13.07;12.10;;;;;;;;;;4938440;29;20219;-73
2022/06/25 01:12:37;;;;;;;13.93;12.77;;;;;;;;;;4938744;29;20282;-73
2022/06/25 01:15:08;;;;;;;13.75;12.65;;;;;;;;;;4938302;29;20238;-73
2022/06/25 01:17:36;;;;;;;13.80;12.50;;;;;;;;;;4923514;29;20256;-73
2022/06/25 01:20:05;;;;;;;13.65;12.55;;;;;;;;;;4938686;29;20215;-73
2022/06/25 01:22:35;;;;;;;13.20;12.20;;;;;;;;;;4949147;29;20266;-73
2022/06/25 01:25:04;;;;;;;13.32;12.23;;;;;;;;;;4919711;29;20279;-73
2022/06/25 01:27:32;;;;;;;12.73;11.73;;;;;;;;;;4932579;29;20219;-73
2022/06/25 01:30:02;;;;;;;12.50;11.40;;;;;;;;;;4938071;29;20246;-73
2022/06/25 01:32:31;;;;;;;12.93;11.82;;;;;;;;;;4938247;29;20258;-73
2022/06/25 01:34:59;;;;;;;12.75;11.65;;;;;;;;;;4938241;29;20235;-73
2022/06/25 01:37:28;;;;;;;11.65;10.75;;;;;;;;;;4937695;29;20211;-73
2022/06/25 01:39:58;;;;;;;12.55;11.55;;;;;;;;;;4937809;29;20258;-73
2022/06/25 01:45:22;;;;;;;11.98;10.93;;;;;;;;;;4937635;29;20283;-73
2022/06/25 01:47:51;;;;;;;12.73;11.48;;;;;;;;;;4937523;29;20191;-73
2022/06/25 01:50:20;;;;;;;11.50;10.40;;;;;;;;;;4937977;29;20222;-74
2022/06/25 01:52:48;;;;;;;12.68;11.57;;;;;;;;;;4937754;29;20674;-73
2022/06/25 01:55:19;;;;;;;13.95;12.70;;;;;;;;;;4937695;29;20227;-73
2022/06/25 01:57:47;;;;;;;14.25;12.98;;;;;;;;;;4937806;29;20286;-73
2022/06/25 02:00:17;;;;;;;14.30;12.90;;;;;;;;;;4938212;29;20580;-73
2022/06/25 02:02:46;;;;;;;11.70;10.70;;;;;;;;;;4937688;29;20207;-73
2022/06/25 02:05:15;;;;;;;13.05;11.80;;;;;;;;;;4937933;29;20223;-73
2022/06/25 02:07:44;;;;;;;14.55;13.35;;;;;;;;;;4938379;29;20236;-73
2022/06/25 02:10:13;;;;;;;12.70;11.70;;;;;;;;;;4937836;29;20214;-73
2022/06/25 02:12:42;;;;;;;13.95;12.63;;;;;;;;;;4937973;29;20207;-73
2022/06/25 02:15:11;;;;;;;14.93;13.60;;;;;;;;;;4936727;29;20286;-73
2022/06/25 02:17:39;;;;;;;16.50;15.00;;;;;;;;;;4937460;29;20211;-73
2022/06/25 02:20:08;;;;;;;16.42;14.93;;;;;;;;;;4937494;29;20215;-73
2022/06/25 02:22:36;;;;;;;14.30;13.10;;;;;;;;;;4937479;29;20234;-73
2022/06/25 02:25:05;;;;;;;14.70;13.45;;;;;;;;;;4937296;29;20223;-73
2022/06/25 02:27:34;;;;;;;14.38;13.18;;;;;;;;;;4937425;29;20258;-74
2022/06/25 02:30:04;;;;;;;13.63;12.43;;;;;;;;;;4937339;29;20213;-74
2022/06/25 02:32:33;;;;;;;13.77;12.68;;;;;;;;;;4937127;29;20214;-74
2022/06/25 02:35:01;;;;;;;14.95;13.63;;;;;;;;;;4936693;29;20227;-74
2022/06/25 02:37:30;;;;;;;15.25;14.05;;;;;;;;;;4922896;29;20575;-75
2022/06/25 02:39:59;;;;;;;16.02;14.55;;;;;;;;;;4937243;29;20297;-74
2022/06/25 02:42:33;;;;;;;16.05;14.45;;;;;;;;;;4936841;29;20203;-74
2022/06/25 02:45:02;;;;;;;16.58;14.90;;;;;;;;;;4936850;29;20258;-74
2022/06/25 02:47:31;;;;;;;16.88;15.18;;;;;;;;;;4937233;29;20261;-74
2022/06/25 02:50:00;;;;;;;15.55;14.25;;;;;;;;;;4936813;29;20196;-74
2022/06/25 02:52:29;;;;;;;16.38;14.80;;;;;;;;;;4937088;29;20203;-74
2022/06/25 02:54:57;;;;;;;15.13;13.85;;;;;;;;;;4936844;29;20282;-74
2022/06/25 03:00:26;;;;;;;18.63;16.92;;;;;;;;;;4878115;29;20613;-74
2022/06/25 03:02:56;;;;;;;17.73;16.08;;;;;;;;;;4878602;29;20778;-74
2022/06/25 03:05:25;;;;;;;17.35;15.65;;;;;;;;;;4908859;29;20227;-74
2022/06/25 03:07:53;;;;;;;18.40;16.80;;;;;;;;;;4940863;29;20211;-74
2022/06/25 03:10:22;;;;;;;14.70;13.40;;;;;;;;;;4940981;29;20210;-74
2022/06/25 03:12:51;;;;;;;15.52;14.15;;;;;;;;;;4940641;29;20288;-74
2022/06/25 03:15:19;;;;;;;15.40;13.93;;;;;;;;;;4939959;29;20231;-74
2022/06/25 03:17:48;;;;;;;16.80;15.30;;;;;;;;;;4940781;29;20207;-74
2022/06/25 03:20:18;;;;;;;16.00;14.65;;;;;;;;;;4940663;29;20222;-74
2022/06/25 03:22:46;;;;;;;16.48;14.98;;;;;;;;;;4940591;29;20254;-74
2022/06/25 03:25:15;;;;;;;15.73;14.35;;;;;;;;;;4940185;29;20238;-74
2022/06/25 03:27:43;;;;;;;15.38;14.07;;;;;;;;;;4940387;29;20285;-74
2022/06/25 03:30:12;;;;;;;15.45;14.15;;;;;;;;;;4940477;29;20262;-74
2022/06/25 03:32:40;;;;;;;16.40;14.90;;;;;;;;;;4940287;29;20571;-74
2022/06/25 03:35:09;;;;;;;15.85;14.30;;;;;;;;;;4940067;29;20274;-74
2022/06/25 03:37:38;;;;;;;16.38;15.00;;;;;;;;;;4939662;29;20301;-74
2022/06/25 03:40:07;;;;;;;16.42;14.93;;;;;;;;;;4940175;29;20211;-74
2022/06/25 03:42:36;;;;;;;17.63;16.02;;;;;;;;;;4940546;29;20231;-74
2022/06/25 03:45:05;;;;;;;15.88;14.27;;;;;;;;;;4939919;29;20235;-75
2022/06/25 03:47:33;;;;;;;16.33;14.77;;;;;;;;;;4940234;29;20211;-74
2022/06/25 03:50:02;;;;;;;16.15;14.65;;;;;;;;;;4939275;29;20215;-74
2022/06/25 03:52:31;;;;;;;16.20;14.90;;;;;;;;;;4939842;29;20215;-74
2022/06/25 03:55:01;;;;;;;16.67;15.23;;;;;;;;;;4939700;29;20718;-74
2022/06/25 03:57:30;;;;;;;15.53;14.13;;;;;;;;;;4940173;29;20211;-74
2022/06/25 03:59:59;;;;;;;14.97;13.60;;;;;;;;;;4940314;29;20266;-73
2022/06/25 04:02:27;;;;;;;16.67;15.03;;;;;;;;;;4940249;29;20251;-74
2022/06/25 04:04:56;;;;;;;16.00;14.70;;;;;;;;;;4939898;29;20648;-74
2022/06/25 04:07:24;;;;;;;16.00;14.60;;;;;;;;;;4939510;29;20298;-74
2022/06/25 04:09:53;;;;;;;15.50;14.10;;;;;;;;;;4939090;29;20199;-74
2022/06/25 04:12:23;;;;;;;15.57;14.17;;;;;;;;;;4939714;29;20203;-74
2022/06/25 04:14:51;;;;;;;17.15;15.68;;;;;;;;;;4939084;29;20235;-75
2022/06/25 04:17:20;;;;;;;15.47;14.07;;;;;;;;;;4939438;29;20325;-74
2022/06/25 04:19:48;;;;;;;16.00;14.53;;;;;;;;;;4939144;29;20211;-74
2022/06/25 04:22:17;;;;;;;17.35;15.68;;;;;;;;;;4948070;29;20603;-74
2022/06/25 04:24:45;;;;;;;15.30;13.85;;;;;;;;;;4958486;28;20234;-74
2022/06/25 04:29:58;;;;;;;14.00;12.90;;;;;;;;;;4957249;29;20705;-74
2022/06/25 04:32:26;;;;;;;14.13;12.90;;;;;;;;;;4958942;29;20202;-74
2022/06/25 04:34:54;;;;;;;16.13;14.65;;;;;;;;;;4958194;28;20235;-73
2022/06/25 04:37:23;;;;;;;14.15;13.05;;;;;;;;;;4958350;29;20226;-74
2022/06/25 04:39:51;;;;;;;15.55;14.10;;;;;;;;;;4958580;29;20206;-74
2022/06/25 04:42:20;;;;;;;14.75;13.50;;;;;;;;;;4953233;29;20207;-75
2022/06/25 04:44:51;;;;;;;14.32;12.88;;;;;;;;;;4939336;29;20223;-74
2022/06/25 04:47:20;;;;;;;12.20;11.10;;;;;;;;;;4939458;29;20247;-74
2022/06/25 04:49:49;;;;;;;12.90;11.70;;;;;;;;;;4939193;29;20211;-74
2022/06/25 04:52:18;;;;;;;13.02;11.73;;;;;;;;;;4938630;29;20588;-74
2022/06/25 04:54:46;;;;;;;12.07;11.18;;;;;;;;;;4939117;29;20603;-74
2022/06/25 04:57:15;;;;;;;11.18;10.18;;;;;;;;;;4938545;29;20227;-74
2022/06/25 04:59:44;;;;;;;10.73;9.93;;;;;;;;;;4938935;29;20290;-74
2022/06/25 05:02:12;;;;;;;10.98;9.98;;;;;;;;;;4938169;29;20207;-74
2022/06/25 05:04:43;;;;;;;11.45;10.50;;;;;;;;;;4952915;23;20243;-74
2022/06/25 05:07:12;;;;;;;11.60;10.30;;;;;;;;;;4957795;29;20202;-74
2022/06/25 05:09:42;;;;;;;9.98;8.98;;;;;;;;;;4957310;29;20695;-74
2022/06/25 05:13:11;;;;;;;9.80;9.00;;;;;;;;;;4957727;29;20203;-74
2022/06/25 05:15:00;;;;;;;9.95;9.05;;;;;;;;;;4957075;28;20269;-74
2022/06/25 05:17:30;;;;;;;9.63;8.93;;;;;;;;;;4957376;29;20227;-74
2022/06/25 05:20:01;;;;;;;9.00;8.20;;;;;;;;;;4957177;29;20258;-74
2022/06/25 05:22:29;;;;;;;9.10;8.30;;;;;;;;;;4957042;29;20245;-74
2022/06/25 05:24:58;;;;;;;8.38;7.70;;;;;;;;;;5024208;23;20715;-74
2022/06/25 05:27:27;;;;;;;8.68;7.85;;;;;;;;;;4956605;28;20202;-74
2022/06/25 05:29:56;;;;;;;8.23;7.53;;;;;;;;;;4956555;29;20652;-74
2022/06/25 05:32:25;;;;;;;8.65;7.80;;;;;;;;;;4956775;29;20206;-75
2022/06/25 05:34:57;;;;;;;8.68;7.97;;;;;;;;;;4957741;28;20283;-74
2022/06/25 05:37:27;;;;;;;8.95;8.25;;;;;;;;;;4957523;29;20206;-74
2022/06/25 05:39:56;;;;;;;8.40;7.63;;;;;;;;;;4958489;29;20214;-74
2022/06/25 05:42:25;;;;;;;8.32;7.40;;;;;;;;;;4956640;29;20229;-74
2022/06/25 05:44:54;;;;;;;7.03;6.45;;;;;;;;;;4956658;29;20269;-74
2022/06/25 05:47:23;;;;;;;5.07;4.68;;;;;;;;;;4939176;29;20206;-75
2022/06/25 05:49:51;;;;;;;4.80;4.40;;;;;;;;;;4937537;29;20680;-74
2022/06/25 05:52:20;;;;;;;4.57;4.00;;;;;;;;;;4937811;29;20239;-75
2022/06/25 05:54:50;;;;;;;4.20;3.90;;;;;;;;;;4995974;23;20242;-76
2022/06/25 05:57:19;;;;;;;5.30;3.80;;;;;;;;;;4936894;29;20234;-77
2022/06/25 05:59:48;;;;;;;4.28;3.88;;;;;;;;;;4926443;29;20645;-76
2022/06/25 06:02:17;;;;;;;4.20;3.80;;;;;;;;;;4936556;29;20206;-75
2022/06/25 06:04:45;;;;;;;3.70;3.40;;;;;;;;;;4936737;29;20360;-75
2022/06/25 06:07:14;;;;;;;3.88;3.50;;;;;;;;;;4936211;29;20286;-77
2022/06/25 06:09:43;;;;;;;3.53;3.22;;;;;;;;;;4936625;29;20215;-76
2022/06/25 06:12:12;;;;;;;3.83;3.42;;;;;;;;;;4936605;29;20262;-79
2022/06/25 06:14:41;;;;;;;3.55;3.05;;;;;;;;;;4936955;29;20695;-79
2022/06/25 06:17:09;;;;;;;4.55;3.00;;;;;;;;;;4937095;29;20226;-78
2022/06/25 06:19:38;;;;;;;3.42;3.13;;;;;;;;;;4936493;29;20211;-79
2022/06/25 06:22:06;;;;;;;3.50;2.80;;;;;;;;;;4936584;29;20739;-79
2022/06/25 06:24:44;;;;;;;4.15;2.85;;;;;;;;;;4937031;29;20245;-80
2022/06/25 06:27:14;;;;;;;5.63;3.22;;;;;;;;;;4936837;29;20621;-79
2022/06/25 06:29:43;;;;;;;4.43;2.90;;;;;;;;;;4936566;29;20192;-78
2022/06/25 06:32:12;;;;;;;5.57;2.92;;;;;;;;;;4936642;29;20258;-79
2022/06/25 06:34:40;;;;;;;5.18;3.33;;;;;;;;;;4936610;29;20617;-79
2022/06/25 06:37:09;;;;;;;4.00;2.95;;;;;;;;;;4936751;29;20231;-79
2022/06/25 06:39:38;;;;;;;4.00;3.28;;;;;;;;;;4934967;29;20214;-79
2022/06/25 06:42:22;;;;;;;3.08;2.78;;;;;;;;;;4934947;29;20574;-79
2022/06/25 06:44:55;;;;;;;5.13;3.13;;;;;;;;;;4934953;29;20234;-78
2022/06/25 06:47:24;;;;;;;4.70;2.80;;;;;;;;;;4936234;29;20656;-79
2022/06/25 06:49:52;;;;;;;4.43;3.00;;;;;;;;;;4935699;29;20372;-78
2022/06/25 06:52:21;;;;;;;4.57;2.90;;;;;;;;;;4935867;29;20262;-79
2022/06/25 06:54:49;;;;;;;3.17;2.90;;;;;;;;;;4935134;29;20250;-79
2022/06/25 06:57:18;;;;;;;4.57;3.22;;;;;;;;;;4934120;29;20286;-79
2022/06/25 06:59:48;;;;;;;3.83;3.28;;;;;;;;;;4935867;29;20211;-79
2022/06/25 07:02:16;;;;;;;7.10;3.05;;;;;;;;;;4935821;29;20207;-79
2022/06/25 07:04:45;;;;;;;6.22;3.10;;;;;;;;;;4935897;29;20223;-79
2022/06/25 07:07:14;;;;;;;5.00;2.85;;;;;;;;;;4935916;29;20207;-80
2022/06/25 07:09:42;;;;;;;3.42;2.75;;;;;;;;;;4936259;29;20211;-80
2022/06/25 07:12:10;;;;;;;4.72;2.72;;;;;;;;;;4936106;29;20616;-80
2022/06/25 07:14:39;;;;;;;4.40;2.85;;;;;;;;;;4935708;29;20231;-80
2022/06/25 07:17:09;;;;;;;2.83;2.63;;;;;;;;;;4935642;29;20258;-80
2022/06/25 07:19:38;;;;;;;5.20;2.60;;;;;;;;;;4936237;29;20199;-78
2022/06/25 07:22:06;;;;;;;3.63;2.65;;;;;;;;;;4935643;29;20207;-79
2022/06/25 07:24:35;;;;;;;4.10;2.70;;;;;;;;;;4935568;29;20242;-79
2022/06/25 07:27:03;;;;;;;4.28;2.38;;;;;;;;;;4935511;29;20203;-79
2022/06/25 07:29:32;;;;;;;3.80;2.55;;;;;;;;;;4935742;29;20207;-80
2022/06/25 07:32:00;;;;;;;2.88;2.33;;;;;;;;;;4935704;29;20214;-80
2022/06/25 07:34:30;;;;;;;3.65;2.30;;;;;;;;;;4935806;29;20231;-79
2022/06/25 07:36:59;;;;;;;3.92;2.30;;;;;;;;;;4935921;29;20719;-79
2022/06/25 07:39:28;;;;;;;3.28;1.88;;;;;;;;;;4934466;29;20627;-78
2022/06/25 07:41:56;;;;;;;2.40;1.83;;;;;;;;;;4933055;29;20211;-79
2022/06/25 07:44:25;;;;;;;4.18;2.10;;;;;;;;;;4934510;29;20242;-80
2022/06/25 07:46:54;;;;;;;3.22;1.90;;;;;;;;;;4934421;29;20211;-79
2022/06/25 07:49:23;;;;;;;3.10;2.13;;;;;;;;;;4934697;29;20207;-79
2022/06/25 07:52:00;;;;;;;3.10;2.15;;;;;;;;;;4938670;29;20286;-80
2022/06/25 07:54:30;;;;;;;3.58;2.45;;;;;;;;;;4938092;29;20715;-78
2022/06/25 07:56:59;;;;;;;5.47;2.45;;;;;;;;;;4937664;29;20211;-78
2022/06/25 07:59:27;;;;;;;4.18;2.03;;;;;;;;;;4937849;29;20262;-79
2022/06/25 08:01:56;;;;;;;3.88;1.92;;;;;;;;;;4938128;29;20608;-79
2022/06/25 08:04:25;;;;;;;2.58;1.85;;;;;;;;;;4939084;29;20230;-78
2022/06/25 08:06:56;;;;;;;5.28;2.00;;;;;;;;;;4938428;29;20215;-79
2022/06/25 08:09:25;;;;;;;3.75;1.58;;;;;;;;;;4939774;29;20188;-80
2022/06/25 08:11:53;;;;;;;3.50;1.92;;;;;;;;;;4938794;29;20207;-79
2022/06/25 08:14:22;;;;;;;2.35;1.65;;;;;;;;;;4939071;29;20700;-80
2022/06/25 08:16:50;;;;;;;3.20;1.85;;;;;;;;;;4938985;29;20246;-80
2022/06/25 08:19:19;;;;;;;2.03;1.83;;;;;;;;;;4939029;29;20258;-80
2022/06/25 08:21:50;;;;;;;3.05;2.08;;;;;;;;;;4939074;29;20198;-80
2022/06/25 08:24:20;;;;;;;2.40;1.70;;;;;;;;;;4939020;29;20250;-79
2022/06/25 08:26:48;;;;;;;2.22;1.85;;;;;;;;;;4938633;29;20207;-79
2022/06/25 08:29:17;;;;;;;1.98;1.50;;;;;;;;;;4938756;29;20203;-80
2022/06/25 08:31:45;;;;;;;3.08;1.85;;;;;;;;;;4939197;29;20597;-79
2022/06/25 08:34:14;;;;;;;3.72;1.88;;;;;;;;;;4938806;29;20223;-80
2022/06/25 08:36:42;;;;;;;2.53;1.90;;;;;;;;;;4938911;29;20207;-80
2022/06/25 08:39:11;;;;;;;3.80;1.85;;;;;;;;;;4938142;29;20235;-80
2022/06/25 08:41:41;;;;;;;2.00;1.80;;;;;;;;;;4938917;29;20215;-80
2022/06/25 08:44:10;;;;;;;5.75;1.92;;;;;;;;;;4937899;29;20233;-79
2022/06/25 08:46:42;;;;;;;3.10;1.92;;;;;;;;;;4939380;29;20207;-79
2022/06/25 08:49:11;;;;;;;1.88;1.73;;;;;;;;;;4938231;29;20710;-79
2022/06/25 08:51:40;;;;;;;4.07;2.00;;;;;;;;;;4938475;29;20215;-80
2022/06/25 08:54:09;;;;;;;2.63;1.85;;;;;;;;;;4938012;29;20766;-79
2022/06/25 08:56:38;;;;;;;3.33;1.98;;;;;;;;;;4938825;29;20565;-80
2022/06/25 08:59:09;;;;;;;2.22;1.80;;;;;;;;;;4941382;29;20238;-81
2022/06/25 09:01:38;;;;;;;3.42;1.92;;;;;;;;;;4939371;29;20202;-80
2022/06/25 09:04:06;;;;;;;3.13;1.95;;;;;;;;;;4938016;29;20598;-79
2022/06/25 09:06:35;;;;;;;4.57;2.10;;;;;;;;;;4938638;29;20210;-80
2022/06/25 09:09:15;;;;;;;2.42;1.80;;;;;;;;;;4938350;29;20206;-79
2022/06/25 09:11:53;;;;;;;3.22;1.80;;;;;;;;;;4938780;29;20538;-80
2022/06/25 09:14:24;;;;;;;2.80;1.92;;;;;;;;;;4937775;29;20227;-79
2022/06/25 09:16:57;;;;;;;3.88;1.98;;;;;;;;;;4937848;29;20640;-80
2022/06/25 09:19:33;;;;;;;2.90;1.67;;;;;;;;;;4937540;29;20238;-79
2022/06/25 09:22:01;;;;;;;3.20;1.65;;;;;;;;;;4937538;29;20198;-79
2022/06/25 09:24:45;;;;;;;4.32;1.90;;;;;;;;;;4937571;29;20231;-80
2022/06/25 09:27:14;;;;;;;2.13;1.75;;;;;;;;;;4936162;29;20207;-79
2022/06/25 09:29:44;;;;;;;2.72;1.60;;;;;;;;;;4937581;29;20254;-80
2022/06/25 09:32:13;;;;;;;4.05;1.80;;;;;;;;;;4937477;29;20191;-79
2022/06/25 09:34:43;;;;;;;3.53;2.00;;;;;;;;;;4937534;29;20648;-80
2022/06/25 09:37:22;;;;;;;3.63;1.90;;;;;;;;;;4938811;29;20211;-80
2022/06/25 09:39:51;;;;;;;4.93;1.80;;;;;;;;;;4939132;29;20574;-80
2022/06/25 09:42:28;;;;;;;1.95;1.60;;;;;;;;;;4937422;29;20222;-80
2022/06/25 09:45:06;;;;;;;4.22;1.80;;;;;;;;;;4937176;29;20231;-79
2022/06/25 09:47:38;;;;;;;2.15;1.60;;;;;;;;;;4937246;29;20211;-80
2022/06/25 09:50:08;;;;;;;2.05;1.58;;;;;;;;;;4940253;29;20206;-81
2022/06/25 09:52:52;;;;;;;3.97;1.52;;;;;;;;;;4939796;29;20210;-80
2022/06/25 09:55:37;;;;;;;2.83;1.80;;;;;;;;;;4936764;29;20231;-80
2022/06/25 09:58:06;;;;;;;1.92;1.70;;;;;;;;;;4937822;29;20195;-80
2022/06/25 10:00:36;;;;;;;1.95;1.60;;;;;;;;;;4937636;29;20218;-80
2022/06/25 10:03:05;;;;;;;1.95;1.67;;;;;;;;;;4938209;29;20191;-80
2022/06/25 10:05:36;;;;;;;2.80;1.75;;;;;;;;;;4941795;29;20235;-81
2022/06/25 10:08:09;;;;;;;2.72;1.70;;;;;;;;;;4943654;29;20192;-80
2022/06/25 10:10:39;;;;;;;1.85;1.67;;;;;;;;;;4942189;29;20192;-79
2022/06/25 10:13:09;;;;;;;1.67;1.55;;;;;;;;;;4938952;29;20583;-79
2022/06/25 10:15:40;;;;;;;1.65;1.52;;;;;;;;;;4943542;29;20655;-82
2022/06/25 10:18:10;;;;;;;2.20;1.90;;;;;;;;;;4943052;29;20239;-80
2022/06/25 10:20:39;;;;;;;1.75;1.50;;;;;;;;;;4941582;29;20252;-80
2022/06/25 10:23:09;;;;;;;1.83;1.58;;;;;;;;;;4942253;29;20215;-81
2022/06/25 10:25:37;;;;;;;1.88;1.50;;;;;;;;;;4941440;29;20219;-80
2022/06/25 10:28:08;;;;;;;2.35;1.70;;;;;;;;;;4941677;29;20609;-81
2022/06/25 10:30:37;;;;;;;3.15;1.63;;;;;;;;;;4940719;29;20246;-82
2022/06/25 10:33:08;;;;;;;4.03;1.65;;;;;;;;;;4941486;29;20299;-81
2022/06/25 10:35:40;;;;;;;3.38;1.73;;;;;;;;;;4937261;29;20227;-79
2022/06/25 10:38:11;;;;;;;1.70;1.50;;;;;;;;;;4941550;29;20601;-81
2022/06/25 10:40:50;;;;;;;3.03;1.70;;;;;;;;;;4941627;29;20227;-80
2022/06/25 10:43:33;;;;;;;2.65;1.52;;;;;;;;;;4937063;29;20191;-80
2022/06/25 10:46:20;;;;;;;2.55;1.60;;;;;;;;;;4937215;29;20223;-80
2022/06/25 10:49:07;;;;;;;3.72;1.63;;;;;;;;;;4936438;29;20238;-79
2022/06/25 10:51:42;;;;;;;2.75;1.70;;;;;;;;;;4936350;29;20198;-79
2022/06/25 10:54:16;;;;;;;3.22;1.77;;;;;;;;;;4935991;29;20226;-79
2022/06/25 10:56:45;;;;;;;4.70;1.70;;;;;;;;;;4936487;29;20188;-79
2022/06/25 10:59:39;;;;;;;2.35;1.58;;;;;;;;;;4936111;29;20239;-79
2022/06/25 11:02:09;;;;;;;3.03;1.52;;;;;;;;;;4936737;29;20197;-80
2022/06/25 11:04:38;;;;;;;2.30;1.60;;;;;;;;;;4937430;29;20246;-80
2022/06/25 11:07:12;;;;;;;1.80;1.50;;;;;;;;;;4936899;29;20207;-80
2022/06/25 11:09:42;;;;;;;4.05;1.50;;;;;;;;;;4936956;29;20203;-79
2022/06/25 11:12:10;;;;;;;2.72;1.23;;;;;;;;;;4936182;29;20278;-79
2022/06/25 11:14:38;;;;;;;2.45;1.48;;;;;;;;;;4936564;29;20227;-80
2022/06/25 11:17:08;;;;;;;2.17;1.42;;;;;;;;;;4936781;29;20206;-79
2022/06/25 11:19:38;;;;;;;1.50;1.40;;;;;;;;;;4936488;29;20293;-79
2022/06/25 11:22:07;;;;;;;1.40;1.30;;;;;;;;;;4938234;29;20203;-81
2022/06/25 11:28:47;;;;;;;3.25;1.63;;;;;;;;;;4938812;29;20706;-80
2022/06/25 11:30:14;;;;;;;1.90;1.65;;;;;;;;;;4940834;29;20211;-80
2022/06/25 11:32:45;;;;;;;3.08;1.60;;;;;;;;;;4941193;29;20183;-79
2022/06/25 11:35:13;;;;;;;2.72;1.45;;;;;;;;;;4940482;29;20320;-80
2022/06/25 11:37:42;;;;;;;2.47;1.40;;;;;;;;;;4940194;29;20203;-80
2022/06/25 11:40:15;;;;;;;1.65;1.35;;;;;;;;;;4941569;29;20231;-80
2022/06/25 11:42:44;;;;;;;2.92;1.60;;;;;;;;;;4942698;29;20200;-80
2022/06/25 11:45:12;;;;;;;1.80;1.48;;;;;;;;;;4943320;29;20227;-81
2022/06/25 11:47:41;;;;;;;1.92;1.55;;;;;;;;;;4943547;29;20215;-81
2022/06/25 11:50:10;;;;;;;2.80;1.70;;;;;;;;;;4941923;29;20242;-80
2022/06/25 11:52:40;;;;;;;3.78;1.58;;;;;;;;;;4939287;29;20258;-80
2022/06/25 11:55:09;;;;;;;1.60;1.50;;;;;;;;;;4939391;29;20259;-79
2022/06/25 11:57:42;;;;;;;2.63;1.30;;;;;;;;;;4939799;29;20207;-79
2022/06/25 12:00:13;;;;;;;3.08;1.63;;;;;;;;;;4939424;29;20216;-79
2022/06/25 12:02:42;;;;;;;1.75;1.42;;;;;;;;;;4941447;29;20199;-81
2022/06/25 12:05:11;;;;;;;1.52;1.20;;;;;;;;;;4942778;29;20379;-80
2022/06/25 12:07:45;;;;;;;1.50;1.40;;;;;;;;;;4939838;29;20218;-79
2022/06/25 12:10:14;;;;;;;2.00;1.48;;;;;;;;;;4941455;29;20187;-79
2022/06/25 12:12:44;;;;;;;2.88;1.40;;;;;;;;;;4940367;29;20295;-80
2022/06/25 12:15:12;;;;;;;2.70;1.48;;;;;;;;;;4943459;29;20234;-79
2022/06/25 12:17:48;;;;;;;2.28;1.52;;;;;;;;;;4939024;29;20293;-80
2022/06/25 12:20:17;;;;;;;1.50;1.40;;;;;;;;;;4939281;29;20245;-79
2022/06/25 12:22:52;;;;;;;3.97;1.30;;;;;;;;;;4938860;29;20203;-80
2022/06/25 12:25:24;;;;;;;2.20;1.50;;;;;;;;;;4943564;29;20238;-80
2022/06/25 12:27:54;;;;;;;2.25;1.40;;;;;;;;;;4945417;29;20199;-80
2022/06/25 12:30:23;;;;;;;3.13;1.52;;;;;;;;;;4944082;29;20266;-80
2022/06/25 12:32:53;;;;;;;3.13;1.45;;;;;;;;;;4943996;29;20239;-80
2022/06/25 12:35:22;;;;;;;2.13;1.45;;;;;;;;;;4942610;29;20219;-78
2022/06/25 12:38:00;;;;;;;2.75;1.40;;;;;;;;;;4941036;29;20262;-78
2022/06/25 12:40:30;;;;;;;2.50;1.10;;;;;;;;;;4941513;29;20223;-77
2022/06/25 12:43:01;;;;;;;4.03;1.27;;;;;;;;;;4598850;29;10000372;-78
2022/06/25 12:45:32;;;;;;;2.80;1.20;;;;;;;;;;4940318;29;20556;-78
2022/06/25 12:48:00;;;;;;;1.88;1.20;;;;;;;;;;4939462;29;20195;-78
2022/06/25 12:50:29;;;;;;;1.27;1.17;;;;;;;;;;4940198;29;20210;-78
2022/06/25 12:53:07;;;;;;;2.90;1.60;;;;;;;;;;4940729;29;20369;-78
2022/06/25 12:55:35;;;;;;;1.13;1.02;;;;;;;;;;4941496;29;20294;-79
2022/06/25 12:58:06;;;;;;;2.97;1.30;;;;;;;;;;4940730;29;20207;-78
2022/06/25 13:00:36;;;;;;;1.95;1.20;;;;;;;;;;4941056;29;20666;-78
2022/06/25 13:03:05;;;;;;;2.90;1.42;;;;;;;;;;4938359;29;20210;-77
2022/06/25 13:05:34;;;;;;;2.67;1.50;;;;;;;;;;4938823;29;20318;-77
2022/06/25 13:08:03;;;;;;;2.17;1.10;;;;;;;;;;4940555;29;20207;-79
2022/06/25 13:10:32;;;;;;;2.28;1.30;;;;;;;;;;4943089;29;20613;-79
2022/06/25 13:13:03;;;;;;;1.65;1.13;;;;;;;;;;4938438;29;20323;-78
2022/06/25 13:15:34;;;;;;;3.03;1.25;;;;;;;;;;4941108;29;20286;-80
2022/06/25 13:18:03;;;;;;;1.52;1.27;;;;;;;;;;4939191;29;20199;-79
2022/06/25 13:20:32;;;;;;;2.42;1.50;;;;;;;;;;4938342;29;20628;-79
2022/06/25 13:23:01;;;;;;;1.73;1.30;;;;;;;;;;4942805;29;20211;-80
2022/06/25 13:25:30;;;;;;;3.25;1.38;;;;;;;;;;4943197;29;20227;-80
2022/06/25 13:27:59;;;;;;;1.55;1.23;;;;;;;;;;4942585;29;20207;-80
2022/06/25 13:30:27;;;;;;;2.53;1.50;;;;;;;;;;4940891;29;20210;-80
2022/06/25 13:33:17;;;;;;;1.83;1.30;;;;;;;;;;4943066;29;20199;-80
2022/06/25 13:35:45;;;;;;;1.88;1.30;;;;;;;;;;4941086;28;20610;-80
2022/06/25 13:38:14;;;;;;;2.35;1.35;;;;;;;;;;4941590;29;20728;-80
2022/06/25 13:40:42;;;;;;;2.97;1.40;;;;;;;;;;4939633;29;20234;-80
2022/06/25 13:43:11;;;;;;;2.63;1.30;;;;;;;;;;4939380;29;20207;-78
2022/06/25 13:45:40;;;;;;;1.27;1.17;;;;;;;;;;4939018;29;20227;-79
2022/06/25 13:48:09;;;;;;;3.47;1.50;;;;;;;;;;4939366;29;20202;-80
2022/06/25 13:50:39;;;;;;;2.25;1.50;;;;;;;;;;4939536;29;20207;-80
2022/06/25 13:53:08;;;;;;;1.52;1.20;;;;;;;;;;4940586;29;20195;-80
2022/06/25 13:55:36;;;;;;;1.23;1.13;;;;;;;;;;4950524;28;20234;-80
2022/06/25 13:58:05;;;;;;;2.40;1.40;;;;;;;;;;4959079;29;20202;-79
2022/06/25 14:00:33;;;;;;;2.55;1.30;;;;;;;;;;4959141;29;20627;-81
2022/06/25 14:03:02;;;;;;;1.13;1.00;;;;;;;;;;4959387;29;20659;-81
2022/06/25 14:05:30;;;;;;;2.50;1.30;;;;;;;;;;4959420;28;20282;-80
2022/06/25 14:08:00;;;;;;;1.40;1.30;;;;;;;;;;4937846;29;20208;-81
2022/06/25 14:10:28;;;;;;;1.20;1.10;;;;;;;;;;4920759;29;20263;-80
2022/06/25 14:12:57;;;;;;;3.55;1.33;;;;;;;;;;4919946;29;20254;-79
2022/06/25 14:15:25;;;;;;;2.70;1.25;;;;;;;;;;4920044;29;20239;-78
2022/06/25 14:18:00;;;;;;;3.40;1.30;;;;;;;;;;4920985;29;20251;-79
2022/06/25 14:20:29;;;;;;;1.42;1.30;;;;;;;;;;4920704;29;20224;-80
2022/06/25 14:22:59;;;;;;;1.92;1.30;;;;;;;;;;4932928;29;20688;-79
2022/06/25 14:25:28;;;;;;;1.77;1.30;;;;;;;;;;4938368;29;20712;-81
2022/06/25 14:27:57;;;;;;;1.30;1.20;;;;;;;;;;4939877;29;20207;-80
2022/06/25 14:30:26;;;;;;;2.60;1.40;;;;;;;;;;4939494;29;20215;-81
2022/06/25 14:32:55;;;;;;;2.05;1.30;;;;;;;;;;4939393;29;20203;-81
2022/06/25 14:35:23;;;;;;;1.58;1.27;;;;;;;;;;4939056;29;20231;-79
2022/06/25 14:43:26;;;;;;;1.50;1.30;;;;;;;;;;4939025;29;20194;-79
2022/06/25 14:45:54;;;;;;;1.95;1.40;;;;;;;;;;4939231;29;20226;-79
2022/06/25 14:48:23;;;;;;;1.20;1.10;;;;;;;;;;4937756;29;20688;-78
2022/06/25 14:50:51;;;;;;;2.25;1.52;;;;;;;;;;4939300;29;20242;-79
2022/06/25 14:53:20;;;;;;;2.05;1.40;;;;;;;;;;4938197;29;20218;-80
2022/06/25 14:55:50;;;;;;;2.33;1.20;;;;;;;;;;4936652;29;20719;-77
2022/06/25 14:58:18;;;;;;;1.45;1.30;;;;;;;;;;4937297;29;20684;-78
2022/06/25 15:00:46;;;;;;;1.27;1.17;;;;;;;;;;4936496;29;20235;-78
2022/06/25 15:03:15;;;;;;;2.10;1.20;;;;;;;;;;4937770;29;20238;-79
2022/06/25 15:05:46;;;;;;;1.70;1.30;;;;;;;;;;4936659;29;20258;-78
2022/06/25 15:08:15;;;;;;;2.15;1.13;;;;;;;;;;4936780;29;20203;-78
2022/06/25 15:10:48;;;;;;;2.05;1.25;;;;;;;;;;4928021;29;20621;-77